Terminal Aerodrome Forecast
Issued by NWS

Home | Current Version | Previous Version | Text Only | Print | Product List | Glossary On
Versions: 1 2 3 4 5 6 7 8 9 10 11 12 13 14 15 16 17 18 19 20 21 22 23 24
000
FTUS42 TJSJ 262339
TAFKPK
TAF
TKPK 262339Z 2700/2724 04010KT P6SM VCSH SCT018 BKN045
      TEMPO 2700/2702 -SHRA BKN012 BKN040
     FM270600 06012KT P6SM SCT025
     FM271300 08017KT P6SM FEW018 FEW022
      AMD NOT SKED 2702/2711=

USA.gov is the U.S. government's official web portal to all federal, state and local government web resources and services.